Time;durP1;ratioP1;P1;durP2;ratioP2;P2;SDS_P1;SDS_P2;PMS_P1;PMS_P2;Temp;Humidity;BMP_temperature;BMP_pressure;BME280_temperature;BME280_humidity;BME280_pressure;Samples;Min_cycle;Max_cycle;Signal;HPM_P1;HPM_P2
2023/12/04 00:01:15;;;;;;;8.40;3.58;;;-8.60;99.90;;;;;;5055929;28;20029;-69
2023/12/04 00:03:41;;;;;;;10.30;3.78;;;-8.60;99.90;;;;;;5054685;28;20041;-68
2023/12/04 00:06:07;;;;;;;8.38;3.65;;;-8.70;99.90;;;;;;5056078;28;20025;-68
2023/12/04 00:08:33;;;;;;;12.23;3.97;;;-8.80;99.90;;;;;;5055691;28;20036;-68
2023/12/04 00:10:58;;;;;;;8.68;4.22;;;-8.90;99.90;;;;;;5054387;28;20428;-68
2023/12/04 00:13:24;;;;;;;7.85;3.40;;;-8.90;99.90;;;;;;5054816;28;20029;-68
2023/12/04 00:15:50;;;;;;;9.85;4.30;;;-8.80;99.90;;;;;;5055661;28;20028;-68
2023/12/04 00:18:15;;;;;;;7.13;3.60;;;-8.80;99.90;;;;;;5055403;28;20052;-68
2023/12/04 00:20:41;;;;;;;17.98;6.85;;;-8.80;99.90;;;;;;5055401;28;20028;-68
2023/12/04 00:23:07;;;;;;;21.02;7.85;;;-8.80;99.90;;;;;;5054474;28;20033;-68
2023/12/04 00:25:32;;;;;;;9.70;4.43;;;-8.70;99.90;;;;;;5054185;28;20033;-68
2023/12/04 00:27:58;;;;;;;7.20;3.25;;;-8.70;99.90;;;;;;5055354;28;20032;-68
2023/12/04 00:30:23;;;;;;;6.18;3.17;;;-8.60;99.90;;;;;;5053966;28;20025;-68
2023/12/04 00:32:49;;;;;;;9.68;3.15;;;-8.60;99.90;;;;;;5053748;28;20025;-68
2023/12/04 00:35:15;;;;;;;9.20;3.88;;;-8.60;99.90;;;;;;5055289;28;20060;-68
2023/12/04 00:37:41;;;;;;;11.95;4.10;;;-8.60;99.90;;;;;;5053949;28;20029;-68
2023/12/04 00:40:07;;;;;;;10.68;4.00;;;-8.70;99.90;;;;;;5055099;28;20025;-68
2023/12/04 00:42:33;;;;;;;8.48;3.65;;;-8.70;99.90;;;;;;5055682;28;20094;-68
2023/12/04 00:44:59;;;;;;;9.70;4.03;;;-8.70;99.90;;;;;;5054470;28;20029;-68
2023/12/04 00:47:24;;;;;;;8.52;3.28;;;-8.70;99.90;;;;;;5053585;28;20036;-68
2023/12/04 00:49:50;;;;;;;8.63;3.38;;;-8.70;99.90;;;;;;5053784;28;20104;-68
2023/12/04 00:52:15;;;;;;;7.10;3.20;;;-8.60;99.90;;;;;;5054921;28;20435;-68
2023/12/04 00:54:41;;;;;;;6.85;3.42;;;-8.60;99.90;;;;;;5055179;28;20108;-68
2023/12/04 00:57:07;;;;;;;6.45;2.97;;;-8.60;99.90;;;;;;5054821;28;20087;-68
2023/12/04 00:59:33;;;;;;;7.68;3.28;;;-8.60;99.90;;;;;;5054674;28;20047;-68
2023/12/04 01:01:59;;;;;;;7.57;2.78;;;-8.70;99.90;;;;;;5054539;28;20021;-68
2023/12/04 01:04:24;;;;;;;7.35;3.00;;;-8.70;99.90;;;;;;5054695;28;20082;-67
2023/12/04 01:06:51;;;;;;;7.63;3.05;;;-8.80;99.90;;;;;;5054649;28;20112;-67
2023/12/04 01:09:17;;;;;;;6.43;2.60;;;-8.80;99.90;;;;;;5053880;28;20063;-68
2023/12/04 01:11:42;;;;;;;6.43;2.70;;;-8.90;99.90;;;;;;5054431;28;20029;-68
2023/12/04 01:14:08;;;;;;;5.40;2.65;;;-8.90;99.90;;;;;;5054489;28;20021;-67
2023/12/04 01:16:34;;;;;;;8.27;3.33;;;-8.90;99.90;;;;;;5054259;28;20036;-67
2023/12/04 01:18:59;;;;;;;7.90;3.47;;;-9.00;99.90;;;;;;5054360;28;20029;-67
2023/12/04 01:21:25;;;;;;;8.52;3.13;;;-9.10;99.90;;;;;;5054287;28;20509;-67
2023/12/04 01:23:51;;;;;;;6.35;2.80;;;-9.20;99.90;;;;;;5053981;28;20032;-67
2023/12/04 01:26:16;;;;;;;7.60;2.85;;;-9.40;99.90;;;;;;5053026;28;20029;-67
2023/12/04 01:28:42;;;;;;;5.88;2.78;;;-9.40;99.90;;;;;;5052708;28;20488;-67
2023/12/04 01:31:08;;;;;;;10.27;3.88;;;-9.40;99.90;;;;;;5052990;28;20071;-67
2023/12/04 01:33:33;;;;;;;8.75;3.28;;;-9.40;99.90;;;;;;5052676;28;20029;-67
2023/12/04 01:35:59;;;;;;;7.82;3.25;;;-9.40;99.90;;;;;;5054078;28;20033;-67
2023/12/04 01:38:25;;;;;;;8.60;3.75;;;-9.40;99.90;;;;;;5054300;28;20388;-67
2023/12/04 01:40:50;;;;;;;11.15;3.60;;;-9.40;99.90;;;;;;5053053;28;20033;-67
2023/12/04 01:43:16;;;;;;;7.13;2.97;;;-9.40;99.90;;;;;;5054533;28;20046;-67
2023/12/04 01:45:42;;;;;;;8.55;3.33;;;-9.30;99.90;;;;;;5052774;28;20489;-67
2023/12/04 01:48:09;;;;;;;8.40;3.28;;;-9.40;99.90;;;;;;5053534;28;20060;-67
2023/12/04 01:50:36;;;;;;;8.98;3.22;;;-9.40;99.90;;;;;;5053787;28;20082;-67
2023/12/04 01:53:02;;;;;;;6.72;2.75;;;-9.40;99.90;;;;;;5053877;28;20022;-67
2023/12/04 01:55:29;;;;;;;7.00;3.15;;;-9.30;99.90;;;;;;5054443;28;20027;-67
2023/12/04 01:57:56;;;;;;;5.93;2.90;;;-9.30;99.90;;;;;;5053702;28;20040;-67
2023/12/04 02:00:22;;;;;;;4.85;2.45;;;-9.30;99.90;;;;;;5053673;28;20486;-67
2023/12/04 02:02:47;;;;;;;6.80;3.10;;;-9.30;99.90;;;;;;5053425;28;20439;-67
2023/12/04 02:05:14;;;;;;;6.05;2.65;;;-9.40;99.90;;;;;;5053621;28;20028;-67
2023/12/04 02:07:43;;;;;;;6.65;2.63;;;-9.40;99.90;;;;;;5054085;28;20025;-67
2023/12/04 02:10:09;;;;;;;5.72;2.72;;;-9.40;99.90;;;;;;5052280;28;20083;-67
2023/12/04 02:12:35;;;;;;;5.93;2.88;;;-9.50;99.90;;;;;;5053418;28;20041;-67
2023/12/04 02:15:01;;;;;;;8.82;3.15;;;-9.50;99.90;;;;;;5052591;28;20063;-67
2023/12/04 02:17:27;;;;;;;5.85;2.55;;;-9.50;99.90;;;;;;5053472;28;20116;-67
2023/12/04 02:19:54;;;;;;;7.90;2.90;;;-9.50;99.90;;;;;;5052053;28;20477;-67
2023/12/04 02:22:19;;;;;;;7.47;3.05;;;-9.50;99.90;;;;;;5053641;28;20108;-67
2023/12/04 02:24:46;;;;;;;7.85;3.20;;;-9.50;99.90;;;;;;5053230;28;20056;-67
2023/12/04 02:27:20;;;;;;;6.63;2.80;;;-9.50;99.90;;;;;;5053265;28;20036;-67
2023/12/04 02:29:59;;;;;;;6.90;2.65;;;-9.40;99.90;;;;;;5053223;28;20021;-67
2023/12/04 02:32:29;;;;;;;4.72;2.13;;;-9.50;99.90;;;;;;5053097;28;20053;-67
2023/12/04 02:34:56;;;;;;;7.25;2.53;;;-9.60;99.90;;;;;;5052989;28;20485;-67
2023/12/04 02:37:23;;;;;;;7.13;2.70;;;-9.60;99.90;;;;;;5051716;28;20029;-67
2023/12/04 02:39:52;;;;;;;7.50;2.60;;;-9.70;99.90;;;;;;5053118;28;20079;-67
2023/12/04 02:42:19;;;;;;;7.50;2.53;;;-9.80;99.90;;;;;;5053717;28;20025;-67
2023/12/04 02:44:45;;;;;;;4.25;2.30;;;-9.80;99.90;;;;;;5053463;28;20029;-67
2023/12/04 02:47:11;;;;;;;4.13;2.42;;;-9.90;99.90;;;;;;5052807;28;20481;-67
2023/12/04 02:49:37;;;;;;;6.57;2.47;;;-9.90;99.90;;;;;;5051789;28;20033;-67
2023/12/04 02:52:03;;;;;;;4.88;2.42;;;-9.90;99.90;;;;;;5053104;28;20025;-67
2023/12/04 02:54:29;;;;;;;8.90;3.05;;;-9.90;99.90;;;;;;5051890;28;20435;-67
2023/12/04 02:56:54;;;;;;;8.48;3.42;;;-9.90;99.90;;;;;;5051896;28;20053;-67
2023/12/04 02:59:20;;;;;;;12.95;3.97;;;-9.90;99.90;;;;;;5053443;28;20033;-67
2023/12/04 03:01:46;;;;;;;15.32;5.15;;;-10.00;99.90;;;;;;5052789;28;20033;-67
2023/12/04 03:04:12;;;;;;;15.07;5.22;;;-10.10;99.90;;;;;;5052924;28;20481;-67
2023/12/04 03:06:37;;;;;;;18.30;6.53;;;-10.10;99.90;;;;;;5053260;28;20112;-67
2023/12/04 03:09:04;;;;;;;14.98;5.00;;;-10.00;99.90;;;;;;5052060;28;20458;-68
2023/12/04 03:11:30;;;;;;;9.95;3.25;;;-9.90;99.90;;;;;;5052763;28;20021;-68
2023/12/04 03:13:59;;;;;;;7.75;2.38;;;-9.90;99.90;;;;;;5052962;28;20033;-68
2023/12/04 03:16:25;;;;;;;6.63;2.40;;;-9.80;99.90;;;;;;5053216;28;20044;-68
2023/12/04 03:18:50;;;;;;;5.15;2.20;;;-9.70;99.90;;;;;;5051467;28;20029;-68
2023/12/04 03:21:16;;;;;;;5.75;2.60;;;-9.70;99.90;;;;;;5053026;28;20044;-68
2023/12/04 03:23:42;;;;;;;6.45;2.60;;;-9.70;99.90;;;;;;5051430;28;20063;-68
2023/12/04 03:26:08;;;;;;;5.82;2.25;;;-9.70;99.90;;;;;;5052769;28;20112;-68
2023/12/04 03:28:34;;;;;;;5.80;2.10;;;-9.70;99.90;;;;;;5052627;28;20108;-68
2023/12/04 03:31:00;;;;;;;5.75;2.50;;;-9.80;99.90;;;;;;5052570;28;20489;-68
2023/12/04 03:33:25;;;;;;;3.72;1.88;;;-9.80;99.90;;;;;;5052380;28;20036;-68
2023/12/04 03:35:51;;;;;;;4.55;2.00;;;-9.80;99.90;;;;;;5052689;28;20031;-68
2023/12/04 03:38:16;;;;;;;5.88;2.53;;;-9.90;99.90;;;;;;5053066;28;20480;-68
2023/12/04 03:40:42;;;;;;;5.28;1.95;;;-9.90;99.90;;;;;;5052840;28;20025;-68
2023/12/04 03:43:08;;;;;;;4.78;2.20;;;-9.80;99.90;;;;;;5053213;28;20041;-68
2023/12/04 03:45:33;;;;;;;6.68;2.72;;;-9.80;99.90;;;;;;5052892;28;20036;-68
2023/12/04 03:47:59;;;;;;;7.22;2.90;;;-9.70;99.90;;;;;;5053643;28;20029;-68
2023/12/04 03:50:24;;;;;;;8.20;3.63;;;-9.80;99.90;;;;;;5056111;28;20027;-68
2023/12/04 03:52:50;;;;;;;7.05;3.25;;;-9.90;99.90;;;;;;5056050;28;20100;-68
2023/12/04 03:55:16;;;;;;;5.55;2.17;;;-10.00;99.90;;;;;;5056012;28;20104;-68
2023/12/04 03:57:42;;;;;;;6.90;1.92;;;-10.10;99.90;;;;;;5054757;28;20090;-68
2023/12/04 04:00:12;;;;;;;7.60;2.70;;;-10.10;99.90;;;;;;5055809;28;20087;-68
2023/12/04 04:02:40;;;;;;;4.50;2.17;;;-10.10;99.90;;;;;;5055645;28;20032;-68
2023/12/04 04:05:06;;;;;;;6.03;2.35;;;-10.00;99.90;;;;;;5055837;28;20029;-68
2023/12/04 04:07:32;;;;;;;6.28;2.20;;;-9.90;99.90;;;;;;5055755;28;20029;-68
2023/12/04 04:09:58;;;;;;;6.13;2.05;;;-9.90;99.90;;;;;;5055681;28;20027;-68
2023/12/04 04:12:23;;;;;;;7.22;2.33;;;-9.90;99.90;;;;;;5055747;28;20507;-68
2023/12/04 04:14:49;;;;;;;5.68;2.90;;;-9.90;99.90;;;;;;5055630;28;20134;-68
2023/12/04 04:17:14;;;;;;;4.93;2.22;;;-10.00;99.90;;;;;;5054402;28;20056;-68
2023/12/04 04:19:40;;;;;;;4.45;2.05;;;-10.00;99.90;;;;;;5055674;28;20079;-68
2023/12/04 04:22:06;;;;;;;4.97;2.40;;;-10.10;99.90;;;;;;5055797;28;20033;-68
2023/12/04 04:24:32;;;;;;;6.38;2.22;;;-10.20;99.90;;;;;;5055423;28;20033;-67
2023/12/04 04:26:57;;;;;;;3.78;1.95;;;-10.30;99.90;;;;;;5054889;28;20358;-68
2023/12/04 04:29:23;;;;;;;8.00;2.38;;;-10.40;99.90;;;;;;5055158;28;20053;-68
2023/12/04 04:31:49;;;;;;;5.68;2.28;;;-10.50;99.90;;;;;;5055088;28;20508;-67
2023/12/04 04:34:14;;;;;;;4.45;2.35;;;-10.60;99.90;;;;;;5055563;28;20025;-68
2023/12/04 04:36:40;;;;;;;5.25;2.22;;;-10.70;99.90;;;;;;5055507;28;20051;-68
2023/12/04 04:39:06;;;;;;;4.60;2.03;;;-10.70;99.90;;;;;;5053966;28;20112;-68
2023/12/04 04:41:32;;;;;;;4.90;2.08;;;-10.60;99.90;;;;;;5054023;28;20431;-68
2023/12/04 04:43:57;;;;;;;4.03;1.80;;;-10.50;99.90;;;;;;5055156;28;20056;-68
2023/12/04 04:46:25;;;;;;;4.80;2.13;;;-10.30;99.90;;;;;;5053927;28;20029;-68
2023/12/04 04:48:50;;;;;;;5.32;2.05;;;-10.30;99.90;;;;;;5054621;28;20151;-68
2023/12/04 04:51:16;;;;;;;4.10;2.00;;;-10.20;99.90;;;;;;5055010;28;20478;-68
2023/12/04 04:53:42;;;;;;;3.55;1.83;;;-10.20;99.90;;;;;;5054017;28;20129;-68
2023/12/04 04:56:08;;;;;;;6.15;2.17;;;-10.20;99.90;;;;;;5053706;28;20069;-68
2023/12/04 04:58:34;;;;;;;5.05;2.08;;;-10.20;99.90;;;;;;5053256;28;20048;-68
2023/12/04 05:01:00;;;;;;;5.18;2.45;;;-10.20;99.90;;;;;;5054615;28;20029;-67
2023/12/04 05:03:25;;;;;;;3.35;2.08;;;-10.20;99.90;;;;;;5054529;28;20431;-68
2023/12/04 05:05:51;;;;;;;5.88;1.92;;;-10.10;99.90;;;;;;5054691;28;20500;-68
2023/12/04 05:08:17;;;;;;;4.25;1.92;;;-10.10;99.90;;;;;;5055040;28;20386;-68
2023/12/04 05:10:43;;;;;;;6.57;2.42;;;-10.20;99.90;;;;;;5055032;28;20029;-69
2023/12/04 05:13:08;;;;;;;5.47;2.78;;;-10.10;99.90;;;;;;5054513;28;20060;-68
2023/12/04 05:15:34;;;;;;;6.00;2.53;;;-10.10;99.90;;;;;;5054228;28;20029;-68
2023/12/04 05:18:00;;;;;;;4.25;2.10;;;-10.10;99.90;;;;;;5052723;28;20031;-68
2023/12/04 05:20:26;;;;;;;4.97;1.90;;;-10.10;99.90;;;;;;5054877;28;20108;-69
2023/12/04 05:22:52;;;;;;;3.55;1.42;;;-10.10;99.90;;;;;;5054322;28;20028;-68
2023/12/04 05:25:17;;;;;;;9.38;2.40;;;-10.10;99.90;;;;;;5052976;28;20025;-68
2023/12/04 05:27:43;;;;;;;3.40;1.67;;;-10.20;99.90;;;;;;5053940;28;20481;-69
2023/12/04 05:30:09;;;;;;;6.18;1.80;;;-10.10;99.90;;;;;;5054389;28;20025;-69
2023/12/04 05:32:35;;;;;;;4.50;2.15;;;-10.10;99.90;;;;;;5053867;28;20155;-69
2023/12/04 05:35:01;;;;;;;5.53;1.90;;;-10.10;99.90;;;;;;5054034;28;20017;-69
2023/12/04 05:37:26;;;;;;;4.68;1.80;;;-10.00;99.90;;;;;;5054601;28;20511;-69
2023/12/04 05:39:52;;;;;;;4.60;2.22;;;-10.00;99.90;;;;;;5053942;28;20036;-69
2023/12/04 05:42:18;;;;;;;5.82;2.38;;;-9.90;99.90;;;;;;5052717;28;20029;-69
2023/12/04 05:44:43;;;;;;;4.93;2.65;;;-10.00;99.90;;;;;;5053914;28;20028;-70
2023/12/04 05:47:09;;;;;;;5.75;2.53;;;-10.10;99.90;;;;;;5052501;28;20025;-69
2023/12/04 05:49:35;;;;;;;6.40;2.03;;;-10.20;99.90;;;;;;5054070;28;20507;-69
2023/12/04 05:52:00;;;;;;;6.82;2.65;;;-10.20;99.90;;;;;;5053856;28;20032;-70
2023/12/04 05:54:26;;;;;;;6.38;2.58;;;-10.30;99.90;;;;;;5053798;28;20032;-70
2023/12/04 05:56:52;;;;;;;7.53;2.35;;;-10.40;99.90;;;;;;5053756;28;20104;-70
2023/12/04 05:59:18;;;;;;;5.38;1.95;;;-10.40;99.90;;;;;;5053640;28;20059;-69
2023/12/04 06:01:43;;;;;;;3.72;2.08;;;-10.40;99.90;;;;;;5053680;28;20029;-70
2023/12/04 06:04:09;;;;;;;62.15;17.52;;;-10.40;99.90;;;;;;5052276;28;20055;-70
2023/12/04 06:06:34;;;;;;;18.65;6.90;;;-10.40;99.90;;;;;;5053606;28;20033;-70
2023/12/04 06:09:00;;;;;;;8.27;3.10;;;-10.50;99.90;;;;;;5053660;28;20037;-70
2023/12/04 06:11:26;;;;;;;14.48;5.53;;;-10.70;99.90;;;;;;5052955;28;20540;-68
2023/12/04 06:13:52;;;;;;;8.60;3.05;;;-10.80;99.90;;;;;;5052643;28;20029;-68
2023/12/04 06:16:17;;;;;;;9.48;4.38;;;-10.90;99.90;;;;;;5053736;28;20033;-69
2023/12/04 06:18:43;;;;;;;10.35;4.05;;;-11.00;99.90;;;;;;5053220;28;20389;-69
2023/12/04 06:21:09;;;;;;;10.60;4.38;;;-11.00;99.90;;;;;;5053398;28;20025;-69
2023/12/04 06:23:35;;;;;;;18.10;6.53;;;-11.00;99.90;;;;;;5053553;28;20068;-69
2023/12/04 06:26:01;;;;;;;12.90;5.63;;;-10.80;99.90;;;;;;5053286;28;20037;-69
2023/12/04 06:28:27;;;;;;;8.15;3.65;;;-10.60;99.90;;;;;;5053206;28;20033;-68
2023/12/04 06:30:52;;;;;;;8.95;2.90;;;-10.50;99.90;;;;;;5053201;28;20142;-69
2023/12/04 06:33:20;;;;;;;9.68;3.00;;;-10.40;99.90;;;;;;5052973;28;20036;-69
2023/12/04 06:35:46;;;;;;;8.00;2.90;;;-10.30;99.90;;;;;;5053456;28;20025;-68
2023/12/04 06:38:15;;;;;;;10.95;3.33;;;-10.30;99.90;;;;;;5053217;28;20123;-69
2023/12/04 06:40:41;;;;;;;6.75;3.20;;;-10.30;99.90;;;;;;5053485;28;20467;-69
2023/12/04 06:43:07;;;;;;;6.10;3.13;;;-10.20;99.90;;;;;;5053184;28;20113;-69
2023/12/04 06:45:33;;;;;;;9.60;3.47;;;-10.20;99.90;;;;;;5053187;28;20083;-69
2023/12/04 06:48:00;;;;;;;9.10;3.95;;;-10.10;99.90;;;;;;5052785;28;20391;-69
2023/12/04 06:50:26;;;;;;;9.05;3.45;;;-10.00;99.90;;;;;;5053575;28;20059;-69
2023/12/04 06:52:52;;;;;;;7.88;3.38;;;-10.00;99.90;;;;;;5052984;28;20070;-69
2023/12/04 06:55:17;;;;;;;7.25;3.53;;;-9.90;99.90;;;;;;5051818;28;20115;-69
2023/12/04 06:57:43;;;;;;;17.10;6.90;;;-9.90;99.90;;;;;;5053061;28;20037;-69
2023/12/04 07:00:14;;;;;;;31.80;12.55;;;-9.80;99.90;;;;;;5052912;28;20392;-69
2023/12/04 07:02:39;;;;;;;27.05;13.13;;;-9.80;99.90;;;;;;5053275;28;20024;-69
2023/12/04 07:05:06;;;;;;;29.98;13.85;;;-9.70;99.90;;;;;;5053494;28;20421;-69
2023/12/04 07:07:32;;;;;;;22.52;9.80;;;-9.70;99.90;;;;;;5053461;28;20033;-69
2023/12/04 07:09:57;;;;;;;16.00;7.50;;;-9.60;99.90;;;;;;5052851;28;20495;-69
2023/12/04 07:12:23;;;;;;;12.63;4.55;;;-9.60;99.90;;;;;;5053004;28;20059;-69
2023/12/04 07:14:48;;;;;;;8.55;4.20;;;-9.50;99.90;;;;;;5052258;28;20461;-69
2023/12/04 07:17:15;;;;;;;7.07;3.75;;;-9.50;99.90;;;;;;5051443;28;20025;-69
2023/12/04 07:19:43;;;;;;;10.23;5.10;;;-9.40;99.90;;;;;;5052742;28;20025;-69
2023/12/04 07:22:09;;;;;;;14.02;4.10;;;-9.40;99.90;;;;;;5054051;28;20536;-69
2023/12/04 07:24:34;;;;;;;8.05;3.60;;;-9.40;99.90;;;;;;5056653;28;20057;-69
2023/12/04 07:27:00;;;;;;;8.23;3.70;;;-9.40;99.90;;;;;;5056446;28;20029;-69
2023/12/04 07:29:26;;;;;;;9.55;3.97;;;-9.50;99.90;;;;;;5056307;28;20029;-69
2023/12/04 07:31:51;;;;;;;9.65;4.28;;;-9.50;99.90;;;;;;5056482;28;20028;-69
2023/12/04 07:34:17;;;;;;;9.75;4.80;;;-9.40;99.90;;;;;;5056150;28;20518;-69
2023/12/04 07:36:44;;;;;;;25.20;10.00;;;-9.40;99.90;;;;;;5056702;28;20104;-69
2023/12/04 07:39:10;;;;;;;39.53;14.85;;;-9.30;99.90;;;;;;5056336;28;20098;-69
2023/12/04 07:41:36;;;;;;;33.15;13.63;;;-9.40;99.90;;;;;;5056864;28;20028;-69
2023/12/04 07:44:03;;;;;;;30.75;12.32;;;-9.40;99.90;;;;;;5055126;28;20028;-69
2023/12/04 07:46:29;;;;;;;26.45;11.60;;;-9.40;99.90;;;;;;5056546;28;20404;-69
2023/12/04 07:48:55;;;;;;;10.00;5.25;;;-9.30;99.90;;;;;;5055792;28;20429;-69
2023/12/04 07:51:20;;;;;;;8.82;3.55;;;-9.20;99.90;;;;;;5056427;28;20079;-69
2023/12/04 07:53:47;;;;;;;10.90;3.97;;;-9.10;99.90;;;;;;5056050;28;20017;-69
2023/12/04 07:56:13;;;;;;;9.23;4.20;;;-9.10;99.90;;;;;;5056323;28;20025;-69
2023/12/04 07:58:38;;;;;;;9.50;4.50;;;-9.00;99.90;;;;;;5055925;28;20075;-69
2023/12/04 08:01:05;;;;;;;10.52;4.68;;;-8.90;99.90;;;;;;5056078;28;20259;-69
2023/12/04 08:03:31;;;;;;;10.27;4.47;;;-8.90;99.90;;;;;;5055971;28;20036;-70
2023/12/04 08:05:58;;;;;;;10.95;4.28;;;-8.80;99.90;;;;;;5054725;28;20037;-70
2023/12/04 08:08:24;;;;;;;8.77;3.97;;;-8.70;99.90;;;;;;5055720;28;20496;-69
2023/12/04 08:10:50;;;;;;;11.63;4.85;;;-8.60;99.90;;;;;;5055742;28;20128;-70
2023/12/04 08:13:16;;;;;;;10.02;4.35;;;-8.50;99.90;;;;;;5054400;28;20525;-70
2023/12/04 08:15:42;;;;;;;9.82;4.60;;;-8.50;99.90;;;;;;5055671;28;20021;-69
2023/12/04 08:18:08;;;;;;;9.90;4.45;;;-8.40;99.90;;;;;;5055395;28;20021;-70
2023/12/04 08:20:33;;;;;;;10.93;5.00;;;-8.40;99.90;;;;;;5055536;28;20400;-70
2023/12/04 08:22:59;;;;;;;11.65;5.10;;;-8.30;99.90;;;;;;5056067;28;20108;-70
2023/12/04 08:25:25;;;;;;;9.68;5.47;;;-8.30;99.90;;;;;;5055484;28;20036;-70
2023/12/04 08:27:51;;;;;;;9.98;5.70;;;-8.20;99.90;;;;;;5055550;28;20089;-70
2023/12/04 08:30:16;;;;;;;10.23;4.60;;;-8.10;99.90;;;;;;5055211;28;20107;-70
2023/12/04 08:32:43;;;;;;;11.00;4.28;;;-8.00;99.90;;;;;;5037117;28;20025;-70
2023/12/04 08:35:08;;;;;;;12.52;4.40;;;-7.90;99.90;;;;;;5053281;28;20144;-70
2023/12/04 08:37:34;;;;;;;8.52;4.28;;;-7.90;99.90;;;;;;5054116;28;20104;-70
2023/12/04 08:39:59;;;;;;;8.93;4.43;;;-7.80;99.90;;;;;;5055130;28;20500;-70
2023/12/04 08:42:26;;;;;;;7.55;4.30;;;-7.80;99.90;;;;;;5055162;28;20064;-70
2023/12/04 08:44:51;;;;;;;9.82;4.63;;;-7.70;99.90;;;;;;5055231;28;20053;-70
2023/12/04 08:47:17;;;;;;;11.25;4.72;;;-7.60;99.90;;;;;;5054018;28;20568;-70
2023/12/04 08:49:43;;;;;;;9.68;4.43;;;-7.50;99.90;;;;;;5054761;28;20021;-70
2023/12/04 08:52:09;;;;;;;10.43;5.05;;;-7.50;99.90;;;;;;5053699;28;20083;-70
2023/12/04 08:54:38;;;;;;;10.45;4.50;;;-7.40;99.90;;;;;;5054917;28;20036;-70
2023/12/04 08:57:04;;;;;;;12.10;5.30;;;-7.30;99.90;;;;;;5054920;28;20025;-70
2023/12/04 08:59:29;;;;;;;17.23;7.28;;;-7.20;99.90;;;;;;5054695;28;20059;-70
2023/12/04 09:01:55;;;;;;;16.02;6.05;;;-7.10;99.90;;;;;;5054790;28;20028;-70
2023/12/04 09:04:21;;;;;;;15.98;7.05;;;-7.00;99.90;;;;;;5054568;28;20037;-70
2023/12/04 09:06:47;;;;;;;15.40;8.23;;;-7.00;99.90;;;;;;5055001;28;20032;-70
2023/12/04 09:09:15;;;;;;;14.82;7.88;;;-6.90;99.90;;;;;;5055618;28;20362;-70
2023/12/04 09:11:44;;;;;;;13.52;7.47;;;-6.80;99.90;;;;;;5054496;28;20048;-70
2023/12/04 09:14:10;;;;;;;12.45;6.07;;;-6.70;99.90;;;;;;5054553;28;20481;-70
2023/12/04 09:16:35;;;;;;;11.70;6.05;;;-6.50;99.90;;;;;;5053363;28;20498;-70
2023/12/04 09:19:01;;;;;;;12.60;5.20;;;-6.50;99.90;;;;;;5054371;28;20036;-70
2023/12/04 09:21:27;;;;;;;11.38;5.38;;;-6.40;99.90;;;;;;5054432;28;20389;-70
2023/12/04 09:23:52;;;;;;;11.02;5.47;;;-6.30;99.90;;;;;;5054370;28;20100;-70
2023/12/04 09:26:18;;;;;;;11.18;4.63;;;-6.20;99.90;;;;;;5054614;28;20025;-70
2023/12/04 09:28:44;;;;;;;8.65;4.32;;;-6.10;99.90;;;;;;5052789;28;20057;-70
2023/12/04 09:31:10;;;;;;;7.07;4.05;;;-6.10;99.90;;;;;;5054227;28;20389;-70
2023/12/04 09:33:36;;;;;;;13.43;5.63;;;-6.00;99.90;;;;;;5052794;28;20056;-70
2023/12/04 09:36:02;;;;;;;10.27;4.70;;;-6.00;99.90;;;;;;5054281;28;20114;-70
2023/12/04 09:38:28;;;;;;;7.50;4.30;;;-5.90;99.90;;;;;;5055200;28;20028;-70
2023/12/04 09:40:58;;;;;;;12.20;5.05;;;-5.90;99.90;;;;;;5054029;28;20156;-70
2023/12/04 09:43:25;;;;;;;18.63;5.93;;;-5.90;99.90;;;;;;5052846;28;20064;-70
2023/12/04 09:45:51;;;;;;;12.85;5.55;;;-5.90;99.90;;;;;;5054297;28;20420;-70
2023/12/04 09:48:17;;;;;;;29.27;7.75;;;-5.90;99.90;;;;;;5053801;28;20071;-70
2023/12/04 09:50:43;;;;;;;33.40;9.23;;;-5.90;99.90;;;;;;5053821;28;20053;-70
2023/12/04 09:53:14;;;;;;;18.42;6.75;;;-5.90;99.90;;;;;;5052526;28;20025;-70
2023/12/04 09:55:40;;;;;;;18.13;7.55;;;-5.90;99.90;;;;;;5052630;28;20036;-70
2023/12/04 09:58:06;;;;;;;15.80;6.40;;;-5.80;99.90;;;;;;5053774;28;20033;-70
2023/12/04 10:00:32;;;;;;;18.05;6.20;;;-5.70;99.90;;;;;;5053703;28;20079;-70
2023/12/04 10:02:59;;;;;;;12.50;5.82;;;-5.60;99.90;;;;;;5053404;28;20021;-70
2023/12/04 10:05:25;;;;;;;11.38;5.40;;;-5.50;99.90;;;;;;5053947;28;20440;-70
2023/12/04 10:07:51;;;;;;;11.50;5.25;;;-5.50;99.90;;;;;;5053802;28;20021;-70
2023/12/04 10:10:18;;;;;;;8.45;4.55;;;-5.40;99.90;;;;;;5052460;28;20025;-70
2023/12/04 10:12:43;;;;;;;7.68;3.58;;;-5.40;99.90;;;;;;5053444;28;20121;-70
2023/12/04 10:15:11;;;;;;;8.15;4.22;;;-5.40;99.90;;;;;;5053838;28;20488;-70
2023/12/04 10:17:38;;;;;;;8.27;3.97;;;-5.30;99.90;;;;;;5053458;28;20099;-70
2023/12/04 10:20:12;;;;;;;7.72;3.65;;;-5.20;99.90;;;;;;5053778;28;20028;-70
2023/12/04 10:22:58;;;;;;;8.40;3.35;;;-5.20;99.90;;;;;;5053428;28;20025;-70
2023/12/04 10:25:28;;;;;;;8.80;4.30;;;-5.00;99.90;;;;;;5053455;28;20025;-70
2023/12/04 10:27:54;;;;;;;7.97;4.03;;;-4.90;99.90;;;;;;5052001;28;20078;-70
2023/12/04 10:30:28;;;;;;;8.88;4.43;;;-4.80;99.90;;;;;;5053091;28;20098;-70
2023/12/04 10:33:00;;;;;;;6.47;3.40;;;-4.70;99.90;;;;;;5053056;28;20028;-70
2023/12/04 10:35:31;;;;;;;10.65;3.40;;;-4.60;99.90;;;;;;5053851;28;20025;-70
2023/12/04 10:37:57;;;;;;;7.47;3.90;;;-4.50;99.90;;;;;;5053430;28;20110;-70
2023/12/04 10:40:24;;;;;;;7.45;3.75;;;-4.50;99.90;;;;;;5053165;28;20588;-70
2023/12/04 10:42:50;;;;;;;6.85;3.75;;;-4.50;99.90;;;;;;5053190;28;20116;-70
2023/12/04 10:45:16;;;;;;;9.10;4.00;;;-4.40;99.90;;;;;;5053166;28;20053;-70
2023/12/04 10:47:44;;;;;;;10.27;4.68;;;-4.40;99.90;;;;;;5053078;28;20029;-70
2023/12/04 10:50:12;;;;;;;7.88;3.67;;;-4.30;99.90;;;;;;5052802;28;20025;-70
2023/12/04 10:52:40;;;;;;;8.10;4.00;;;-4.30;99.90;;;;;;5053115;28;20029;-70
2023/12/04 10:55:08;;;;;;;7.28;3.90;;;-4.30;99.90;;;;;;5053417;28;20029;-70
2023/12/04 10:57:38;;;;;;;8.30;4.35;;;-4.20;99.90;;;;;;5055058;28;20024;-70
2023/12/04 11:00:05;;;;;;;7.15;3.85;;;-4.10;99.90;;;;;;5057278;28;20519;-70
2023/12/04 11:02:34;;;;;;;12.60;5.70;;;-4.10;99.90;;;;;;5057046;28;20449;-70
2023/12/04 11:05:13;;;;;;;17.05;7.15;;;-4.00;99.90;;;;;;5056838;28;20021;-70
2023/12/04 11:07:44;;;;;;;16.98;7.20;;;-3.90;99.90;;;;;;5056920;28;20047;-70
2023/12/04 11:10:10;;;;;;;;;;;-3.90;99.90;;;;;;5057579;28;20381;-70
2023/12/04 11:12:43;;;;;;;16.90;6.93;;;-3.90;99.90;;;;;;5056748;28;19924;-70
2023/12/04 11:15:14;;;;;;;12.95;6.75;;;-3.90;99.90;;;;;;5055855;28;20021;-70
2023/12/04 11:17:48;;;;;;;11.32;5.20;;;-3.80;99.90;;;;;;5056882;28;20021;-70
2023/12/04 11:20:27;;;;;;;11.88;5.50;;;-3.90;99.90;;;;;;5056506;28;20104;-70
2023/12/04 11:22:55;;;;;;;11.70;4.95;;;-3.90;99.90;;;;;;5056714;28;20408;-70
2023/12/04 11:25:24;;;;;;;6.88;4.13;;;-3.90;99.90;;;;;;5056639;28;20029;-70
2023/12/04 11:27:52;;;;;;;8.07;4.30;;;-3.90;99.90;;;;;;5056760;28;20100;-70
2023/12/04 11:30:18;;;;;;;10.55;4.85;;;-3.90;99.90;;;;;;5056401;28;20021;-70
2023/12/04 11:32:46;;;;;;;8.30;4.78;;;-3.90;99.90;;;;;;5056441;28;20029;-70
2023/12/04 11:35:18;;;;;;;10.60;4.43;;;-3.90;99.90;;;;;;5056242;28;20033;-70
2023/12/04 11:37:47;;;;;;;6.97;4.20;;;-3.90;99.90;;;;;;5056718;28;20405;-70
2023/12/04 11:40:16;;;;;;;33.47;13.05;;;-3.90;99.90;;;;;;5056406;28;20029;-70
2023/12/04 11:42:41;;;;;;;23.27;9.18;;;-3.80;99.90;;;;;;5055348;28;20399;-70
2023/12/04 11:45:08;;;;;;;32.50;12.20;;;-3.80;99.90;;;;;;5055529;28;20031;-70
2023/12/04 11:47:57;;;;;;;40.92;15.43;;;-3.70;99.90;;;;;;5056171;28;20094;-70
2023/12/04 11:50:26;;;;;;;24.98;11.07;;;-3.70;99.90;;;;;;5056772;28;20079;-70
2023/12/04 11:52:53;;;;;;;10.93;5.00;;;-3.70;99.90;;;;;;5056160;28;20052;-70
2023/12/04 11:55:22;;;;;;;11.70;6.15;;;-3.70;99.90;;;;;;5056437;28;20408;-70
2023/12/04 11:57:50;;;;;;;16.05;7.60;;;-3.70;99.90;;;;;;5056297;28;20029;-70
2023/12/04 12:00:21;;;;;;;14.50;7.15;;;-3.70;99.90;;;;;;5055991;28;20035;-70
2023/12/04 12:02:54;;;;;;;12.30;5.93;;;-3.70;99.90;;;;;;5054717;28;20033;-70
2023/12/04 12:05:23;;;;;;;10.07;5.78;;;-3.70;99.90;;;;;;5055756;28;20021;-70
2023/12/04 12:07:49;;;;;;;12.27;6.00;;;-3.70;99.90;;;;;;5055742;28;20025;-70
2023/12/04 12:10:18;;;;;;;13.40;6.10;;;-3.70;99.90;;;;;;5055758;28;20033;-70
2023/12/04 12:12:44;;;;;;;12.35;6.05;;;-3.80;99.90;;;;;;5055668;28;20040;-70
2023/12/04 12:15:11;;;;;;;10.00;5.90;;;-3.80;99.90;;;;;;5054723;28;20029;-70
2023/12/04 12:17:41;;;;;;;14.27;6.35;;;-3.80;99.90;;;;;;5055900;28;20033;-70
2023/12/04 12:20:08;;;;;;;13.57;7.05;;;-3.80;99.90;;;;;;5055333;28;20021;-70
2023/12/04 12:22:35;;;;;;;18.67;8.77;;;-3.80;99.90;;;;;;5055558;28;20017;-70
2023/12/04 12:25:04;;;;;;;11.20;6.03;;;-3.70;99.90;;;;;;5056068;28;20025;-70
2023/12/04 12:27:30;;;;;;;12.25;5.82;;;-3.70;99.90;;;;;;5055491;28;20017;-70
2023/12/04 12:29:56;;;;;;;13.23;5.82;;;-3.70;99.90;;;;;;5055289;28;20029;-70
2023/12/04 12:32:22;;;;;;;11.10;4.72;;;-3.70;99.90;;;;;;5055294;28;20112;-70
2023/12/04 12:34:47;;;;;;;8.68;4.45;;;-3.60;99.90;;;;;;5055097;28;20037;-70
2023/12/04 12:37:13;;;;;;;8.18;3.97;;;-3.60;99.90;;;;;;5055310;28;20083;-70